sensor_id;sensor_type;location;lat;lon;timestamp;P1;durP1;ratioP1;P2;durP2;ratioP2
81901;SDS011;71369;50.796;3.290;2023-07-20T00:01:21;13.18;;;5.43;;
81901;SDS011;71369;50.796;3.290;2023-07-20T00:03:47;13.18;;;4.63;;
81901;SDS011;71369;50.796;3.290;2023-07-20T00:06:19;16.55;;;5.30;;
81901;SDS011;71369;50.796;3.290;2023-07-20T00:08:50;10.23;;;5.00;;
81901;SDS011;71369;50.796;3.290;2023-07-20T00:11:19;11.82;;;5.70;;
81901;SDS011;71369;50.796;3.290;2023-07-20T00:13:45;13.48;;;5.13;;
81901;SDS011;71369;50.796;3.290;2023-07-20T00:16:11;12.65;;;5.63;;
81901;SDS011;71369;50.796;3.290;2023-07-20T00:18:36;16.85;;;5.82;;
81901;SDS011;71369;50.796;3.290;2023-07-20T00:21:02;13.40;;;5.43;;
81901;SDS011;71369;50.796;3.290;2023-07-20T00:23:29;14.07;;;5.35;;
81901;SDS011;71369;50.796;3.290;2023-07-20T00:25:54;10.32;;;5.38;;
81901;SDS011;71369;50.796;3.290;2023-07-20T00:28:20;14.70;;;5.75;;
81901;SDS011;71369;50.796;3.290;2023-07-20T00:30:45;16.92;;;5.78;;
81901;SDS011;71369;50.796;3.290;2023-07-20T00:33:11;14.00;;;6.25;;
81901;SDS011;71369;50.796;3.290;2023-07-20T00:35:40;14.82;;;6.53;;
81901;SDS011;71369;50.796;3.290;2023-07-20T00:38:06;16.38;;;5.50;;
81901;SDS011;71369;50.796;3.290;2023-07-20T00:40:38;13.27;;;5.05;;
81901;SDS011;71369;50.796;3.290;2023-07-20T00:43:08;15.02;;;5.43;;
81901;SDS011;71369;50.796;3.290;2023-07-20T00:45:34;13.25;;;6.10;;
81901;SDS011;71369;50.796;3.290;2023-07-20T00:48:01;11.80;;;5.70;;
81901;SDS011;71369;50.796;3.290;2023-07-20T00:50:29;14.25;;;5.43;;
81901;SDS011;71369;50.796;3.290;2023-07-20T00:52:55;18.08;;;5.80;;
81901;SDS011;71369;50.796;3.290;2023-07-20T00:55:22;15.85;;;6.47;;
81901;SDS011;71369;50.796;3.290;2023-07-20T00:57:49;14.77;;;6.18;;
81901;SDS011;71369;50.796;3.290;2023-07-20T01:00:17;16.17;;;6.00;;
81901;SDS011;71369;50.796;3.290;2023-07-20T01:02:44;12.90;;;6.53;;
81901;SDS011;71369;50.796;3.290;2023-07-20T01:05:10;16.77;;;6.30;;
81901;SDS011;71369;50.796;3.290;2023-07-20T01:07:43;10.13;;;6.20;;
81901;SDS011;71369;50.796;3.290;2023-07-20T01:10:27;14.77;;;6.22;;
81901;SDS011;71369;50.796;3.290;2023-07-20T01:12:58;14.48;;;6.53;;
81901;SDS011;71369;50.796;3.290;2023-07-20T01:15:26;19.42;;;6.85;;
81901;SDS011;71369;50.796;3.290;2023-07-20T01:17:52;12.43;;;6.32;;
81901;SDS011;71369;50.796;3.290;2023-07-20T01:20:19;14.45;;;6.60;;
81901;SDS011;71369;50.796;3.290;2023-07-20T01:34:03;11.40;;;6.20;;
81901;SDS011;71369;50.796;3.290;2023-07-20T01:36:30;16.70;;;6.25;;
81901;SDS011;71369;50.796;3.290;2023-07-20T01:39:00;11.77;;;5.80;;
81901;SDS011;71369;50.796;3.290;2023-07-20T01:41:29;11.73;;;5.72;;
81901;SDS011;71369;50.796;3.290;2023-07-20T01:43:58;18.02;;;6.95;;
81901;SDS011;71369;50.796;3.290;2023-07-20T01:48:53;16.73;;;6.50;;
81901;SDS011;71369;50.796;3.290;2023-07-20T01:51:19;17.52;;;6.60;;
81901;SDS011;71369;50.796;3.290;2023-07-20T01:53:44;17.90;;;8.13;;
81901;SDS011;71369;50.796;3.290;2023-07-20T01:56:10;15.38;;;7.68;;
81901;SDS011;71369;50.796;3.290;2023-07-20T01:58:37;14.60;;;7.03;;
81901;SDS011;71369;50.796;3.290;2023-07-20T02:01:03;18.95;;;6.75;;
81901;SDS011;71369;50.796;3.290;2023-07-20T02:03:29;16.35;;;7.20;;
81901;SDS011;71369;50.796;3.290;2023-07-20T02:05:55;16.52;;;7.95;;
81901;SDS011;71369;50.796;3.290;2023-07-20T02:08:22;19.15;;;8.50;;
81901;SDS011;71369;50.796;3.290;2023-07-20T02:10:48;18.50;;;7.97;;
81901;SDS011;71369;50.796;3.290;2023-07-20T02:13:14;15.43;;;7.38;;
81901;SDS011;71369;50.796;3.290;2023-07-20T02:15:39;15.25;;;7.88;;
81901;SDS011;71369;50.796;3.290;2023-07-20T02:18:06;17.88;;;7.65;;
81901;SDS011;71369;50.796;3.290;2023-07-20T02:20:32;15.85;;;8.85;;
81901;SDS011;71369;50.796;3.290;2023-07-20T02:22:57;14.75;;;8.02;;
81901;SDS011;71369;50.796;3.290;2023-07-20T02:25:23;15.40;;;8.35;;
81901;SDS011;71369;50.796;3.290;2023-07-20T02:27:48;19.52;;;9.38;;
81901;SDS011;71369;50.796;3.290;2023-07-20T02:30:14;18.25;;;8.90;;
81901;SDS011;71369;50.796;3.290;2023-07-20T02:32:41;16.02;;;9.38;;
81901;SDS011;71369;50.796;3.290;2023-07-20T02:35:12;16.25;;;8.70;;
81901;SDS011;71369;50.796;3.290;2023-07-20T02:37:38;17.80;;;8.77;;
81901;SDS011;71369;50.796;3.290;2023-07-20T02:40:06;17.40;;;9.20;;
81901;SDS011;71369;50.796;3.290;2023-07-20T02:42:32;16.42;;;8.77;;
81901;SDS011;71369;50.796;3.290;2023-07-20T02:44:58;16.48;;;8.68;;
81901;SDS011;71369;50.796;3.290;2023-07-20T02:47:24;19.45;;;8.38;;
81901;SDS011;71369;50.796;3.290;2023-07-20T02:49:50;16.73;;;9.40;;
81901;SDS011;71369;50.796;3.290;2023-07-20T02:52:15;13.68;;;8.38;;
81901;SDS011;71369;50.796;3.290;2023-07-20T02:54:43;19.25;;;8.35;;
81901;SDS011;71369;50.796;3.290;2023-07-20T02:57:09;13.55;;;9.00;;
81901;SDS011;71369;50.796;3.290;2023-07-20T02:59:35;18.63;;;8.60;;
81901;SDS011;71369;50.796;3.290;2023-07-20T03:02:03;16.15;;;8.48;;
81901;SDS011;71369;50.796;3.290;2023-07-20T03:04:28;17.30;;;9.43;;
81901;SDS011;71369;50.796;3.290;2023-07-20T03:06:56;16.80;;;9.10;;
81901;SDS011;71369;50.796;3.290;2023-07-20T03:09:22;16.33;;;9.63;;
81901;SDS011;71369;50.796;3.290;2023-07-20T03:11:48;21.45;;;9.77;;
81901;SDS011;71369;50.796;3.290;2023-07-20T03:14:15;18.83;;;9.32;;
81901;SDS011;71369;50.796;3.290;2023-07-20T03:16:40;16.55;;;9.05;;
81901;SDS011;71369;50.796;3.290;2023-07-20T03:19:06;15.50;;;9.52;;
81901;SDS011;71369;50.796;3.290;2023-07-20T03:21:32;15.32;;;10.07;;
81901;SDS011;71369;50.796;3.290;2023-07-20T03:23:57;19.65;;;10.50;;
81901;SDS011;71369;50.796;3.290;2023-07-20T03:26:23;18.77;;;10.20;;
81901;SDS011;71369;50.796;3.290;2023-07-20T03:28:48;16.15;;;9.98;;
81901;SDS011;71369;50.796;3.290;2023-07-20T03:31:14;16.60;;;9.93;;
81901;SDS011;71369;50.796;3.290;2023-07-20T03:33:40;13.98;;;9.73;;
81901;SDS011;71369;50.796;3.290;2023-07-20T03:36:06;16.50;;;10.02;;
81901;SDS011;71369;50.796;3.290;2023-07-20T03:38:31;16.33;;;10.18;;
81901;SDS011;71369;50.796;3.290;2023-07-20T03:40:58;21.35;;;11.35;;
81901;SDS011;71369;50.796;3.290;2023-07-20T03:43:26;19.95;;;11.77;;
81901;SDS011;71369;50.796;3.290;2023-07-20T03:45:53;17.35;;;10.88;;
81901;SDS011;71369;50.796;3.290;2023-07-20T03:48:20;17.92;;;10.63;;
81901;SDS011;71369;50.796;3.290;2023-07-20T03:50:47;17.48;;;11.27;;
81901;SDS011;71369;50.796;3.290;2023-07-20T03:53:14;14.80;;;10.48;;
81901;SDS011;71369;50.796;3.290;2023-07-20T03:55:47;15.48;;;10.80;;
81901;SDS011;71369;50.796;3.290;2023-07-20T03:58:16;17.83;;;11.38;;
81901;SDS011;71369;50.796;3.290;2023-07-20T04:00:46;21.48;;;11.05;;
81901;SDS011;71369;50.796;3.290;2023-07-20T04:03:13;18.20;;;10.30;;
81901;SDS011;71369;50.796;3.290;2023-07-20T04:05:39;13.20;;;9.52;;
81901;SDS011;71369;50.796;3.290;2023-07-20T04:08:04;15.35;;;10.13;;
81901;SDS011;71369;50.796;3.290;2023-07-20T04:10:30;14.27;;;9.65;;
81901;SDS011;71369;50.796;3.290;2023-07-20T04:12:56;16.50;;;9.95;;
81901;SDS011;71369;50.796;3.290;2023-07-20T04:15:21;14.23;;;10.07;;
81901;SDS011;71369;50.796;3.290;2023-07-20T04:17:47;13.90;;;9.63;;
81901;SDS011;71369;50.796;3.290;2023-07-20T04:20:16;16.90;;;9.73;;
81901;SDS011;71369;50.796;3.290;2023-07-20T04:22:43;14.45;;;9.55;;
81901;SDS011;71369;50.796;3.290;2023-07-20T04:25:08;15.57;;;9.98;;
81901;SDS011;71369;50.796;3.290;2023-07-20T04:27:35;18.80;;;10.38;;
81901;SDS011;71369;50.796;3.290;2023-07-20T04:30:01;15.85;;;9.57;;
81901;SDS011;71369;50.796;3.290;2023-07-20T04:32:27;16.48;;;9.70;;
81901;SDS011;71369;50.796;3.290;2023-07-20T04:34:53;17.10;;;10.77;;
81901;SDS011;71369;50.796;3.290;2023-07-20T04:37:18;18.27;;;9.65;;
81901;SDS011;71369;50.796;3.290;2023-07-20T04:39:44;16.60;;;9.95;;
81901;SDS011;71369;50.796;3.290;2023-07-20T04:42:10;14.57;;;9.95;;
81901;SDS011;71369;50.796;3.290;2023-07-20T04:44:35;16.73;;;9.80;;
81901;SDS011;71369;50.796;3.290;2023-07-20T04:47:04;13.82;;;9.50;;
81901;SDS011;71369;50.796;3.290;2023-07-20T04:49:30;14.15;;;8.73;;
81901;SDS011;71369;50.796;3.290;2023-07-20T04:51:55;17.10;;;9.98;;
81901;SDS011;71369;50.796;3.290;2023-07-20T04:54:21;16.38;;;10.05;;
81901;SDS011;71369;50.796;3.290;2023-07-20T04:56:46;14.68;;;9.85;;
81901;SDS011;71369;50.796;3.290;2023-07-20T04:59:12;14.35;;;10.05;;
81901;SDS011;71369;50.796;3.290;2023-07-20T05:01:38;14.70;;;10.10;;
81901;SDS011;71369;50.796;3.290;2023-07-20T05:04:04;15.13;;;9.48;;
81901;SDS011;71369;50.796;3.290;2023-07-20T05:06:30;14.57;;;10.00;;
81901;SDS011;71369;50.796;3.290;2023-07-20T05:08:55;15.40;;;9.63;;
81901;SDS011;71369;50.796;3.290;2023-07-20T05:11:23;16.42;;;9.77;;
81901;SDS011;71369;50.796;3.290;2023-07-20T05:13:49;15.43;;;10.30;;
81901;SDS011;71369;50.796;3.290;2023-07-20T05:16:15;14.35;;;9.52;;
81901;SDS011;71369;50.796;3.290;2023-07-20T05:18:40;14.77;;;8.77;;
81901;SDS011;71369;50.796;3.290;2023-07-20T05:21:06;16.17;;;9.75;;
81901;SDS011;71369;50.796;3.290;2023-07-20T05:23:35;14.02;;;8.88;;
81901;SDS011;71369;50.796;3.290;2023-07-20T05:26:00;14.50;;;9.85;;
81901;SDS011;71369;50.796;3.290;2023-07-20T05:28:26;15.70;;;9.50;;
81901;SDS011;71369;50.796;3.290;2023-07-20T05:30:52;12.65;;;9.02;;
81901;SDS011;71369;50.796;3.290;2023-07-20T05:33:21;15.38;;;9.15;;
81901;SDS011;71369;50.796;3.290;2023-07-20T05:35:50;17.20;;;9.40;;
81901;SDS011;71369;50.796;3.290;2023-07-20T05:38:15;15.40;;;10.38;;
81901;SDS011;71369;50.796;3.290;2023-07-20T05:40:41;15.05;;;10.23;;
81901;SDS011;71369;50.796;3.290;2023-07-20T05:43:10;14.30;;;10.52;;
81901;SDS011;71369;50.796;3.290;2023-07-20T05:45:36;15.35;;;10.05;;
81901;SDS011;71369;50.796;3.290;2023-07-20T05:48:02;15.23;;;10.63;;
81901;SDS011;71369;50.796;3.290;2023-07-20T05:50:28;16.65;;;10.07;;
81901;SDS011;71369;50.796;3.290;2023-07-20T05:52:53;15.65;;;11.10;;
81901;SDS011;71369;50.796;3.290;2023-07-20T05:55:19;17.10;;;10.32;;
81901;SDS011;71369;50.796;3.290;2023-07-20T05:57:45;15.77;;;10.75;;
81901;SDS011;71369;50.796;3.290;2023-07-20T06:00:12;16.50;;;10.00;;
81901;SDS011;71369;50.796;3.290;2023-07-20T06:02:39;17.10;;;10.60;;
81901;SDS011;71369;50.796;3.290;2023-07-20T06:05:05;13.32;;;9.70;;
81901;SDS011;71369;50.796;3.290;2023-07-20T06:07:35;16.75;;;10.07;;
81901;SDS011;71369;50.796;3.290;2023-07-20T06:10:04;15.20;;;9.35;;
81901;SDS011;71369;50.796;3.290;2023-07-20T06:12:32;12.95;;;9.07;;
81901;SDS011;71369;50.796;3.290;2023-07-20T06:15:02;10.70;;;8.18;;
81901;SDS011;71369;50.796;3.290;2023-07-20T06:17:29;11.77;;;9.23;;
81901;SDS011;71369;50.796;3.290;2023-07-20T06:19:55;11.27;;;9.15;;
81901;SDS011;71369;50.796;3.290;2023-07-20T06:22:20;14.02;;;8.60;;
81901;SDS011;71369;50.796;3.290;2023-07-20T06:24:46;12.32;;;9.05;;
81901;SDS011;71369;50.796;3.290;2023-07-20T06:27:12;13.00;;;8.63;;
81901;SDS011;71369;50.796;3.290;2023-07-20T06:29:37;11.88;;;7.85;;
81901;SDS011;71369;50.796;3.290;2023-07-20T06:32:04;11.15;;;7.28;;
81901;SDS011;71369;50.796;3.290;2023-07-20T06:34:31;10.10;;;6.90;;
81901;SDS011;71369;50.796;3.290;2023-07-20T06:37:01;9.25;;;7.00;;
81901;SDS011;71369;50.796;3.290;2023-07-20T06:39:29;8.88;;;6.45;;
81901;SDS011;71369;50.796;3.290;2023-07-20T06:41:54;11.75;;;6.90;;
81901;SDS011;71369;50.796;3.290;2023-07-20T06:44:20;9.68;;;5.85;;
81901;SDS011;71369;50.796;3.290;2023-07-20T06:46:46;9.10;;;6.25;;
81901;SDS011;71369;50.796;3.290;2023-07-20T06:49:19;9.52;;;6.35;;
81901;SDS011;71369;50.796;3.290;2023-07-20T06:51:52;8.30;;;6.00;;
81901;SDS011;71369;50.796;3.290;2023-07-20T06:54:18;8.75;;;6.20;;
81901;SDS011;71369;50.796;3.290;2023-07-20T06:56:44;8.65;;;5.72;;
81901;SDS011;71369;50.796;3.290;2023-07-20T06:59:10;6.90;;;5.50;;
81901;SDS011;71369;50.796;3.290;2023-07-20T07:01:35;7.78;;;5.75;;
81901;SDS011;71369;50.796;3.290;2023-07-20T07:04:01;8.55;;;5.55;;
81901;SDS011;71369;50.796;3.290;2023-07-20T07:06:27;8.05;;;5.78;;
81901;SDS011;71369;50.796;3.290;2023-07-20T07:08:53;9.15;;;5.85;;
81901;SDS011;71369;50.796;3.290;2023-07-20T07:11:20;8.27;;;4.90;;
81901;SDS011;71369;50.796;3.290;2023-07-20T07:13:46;6.60;;;4.32;;
81901;SDS011;71369;50.796;3.290;2023-07-20T07:16:14;8.43;;;4.57;;
81901;SDS011;71369;50.796;3.290;2023-07-20T07:18:43;6.15;;;4.30;;
81901;SDS011;71369;50.796;3.290;2023-07-20T07:21:10;7.65;;;3.97;;
81901;SDS011;71369;50.796;3.290;2023-07-20T07:23:38;6.45;;;4.38;;
81901;SDS011;71369;50.796;3.290;2023-07-20T07:26:04;9.13;;;4.22;;
81901;SDS011;71369;50.796;3.290;2023-07-20T07:28:30;6.45;;;4.20;;
81901;SDS011;71369;50.796;3.290;2023-07-20T07:30:57;7.93;;;4.35;;
81901;SDS011;71369;50.796;3.290;2023-07-20T07:33:23;4.97;;;3.90;;
81901;SDS011;71369;50.796;3.290;2023-07-20T07:35:49;6.03;;;3.88;;
81901;SDS011;71369;50.796;3.290;2023-07-20T07:38:18;5.72;;;4.03;;
81901;SDS011;71369;50.796;3.290;2023-07-20T07:40:44;5.32;;;3.70;;
81901;SDS011;71369;50.796;3.290;2023-07-20T07:43:10;5.78;;;3.80;;
81901;SDS011;71369;50.796;3.290;2023-07-20T07:45:37;6.25;;;4.15;;
81901;SDS011;71369;50.796;3.290;2023-07-20T07:48:05;5.70;;;3.70;;
81901;SDS011;71369;50.796;3.290;2023-07-20T07:50:36;5.80;;;3.40;;
81901;SDS011;71369;50.796;3.290;2023-07-20T07:53:02;5.32;;;3.53;;
81901;SDS011;71369;50.796;3.290;2023-07-20T07:55:29;6.10;;;3.67;;
81901;SDS011;71369;50.796;3.290;2023-07-20T07:57:55;6.30;;;3.70;;
81901;SDS011;71369;50.796;3.290;2023-07-20T08:00:20;5.95;;;3.75;;
81901;SDS011;71369;50.796;3.290;2023-07-20T08:02:46;6.43;;;3.60;;
81901;SDS011;71369;50.796;3.290;2023-07-20T08:05:13;6.35;;;3.60;;
81901;SDS011;71369;50.796;3.290;2023-07-20T08:07:39;5.07;;;3.40;;
81901;SDS011;71369;50.796;3.290;2023-07-20T08:10:07;4.47;;;3.42;;
81901;SDS011;71369;50.796;3.290;2023-07-20T08:12:33;5.43;;;3.22;;
81901;SDS011;71369;50.796;3.290;2023-07-20T08:14:59;5.57;;;3.50;;
81901;SDS011;71369;50.796;3.290;2023-07-20T08:17:25;4.15;;;3.17;;
81901;SDS011;71369;50.796;3.290;2023-07-20T08:19:50;6.68;;;3.25;;
81901;SDS011;71369;50.796;3.290;2023-07-20T08:22:16;6.60;;;3.38;;
81901;SDS011;71369;50.796;3.290;2023-07-20T08:24:44;5.80;;;3.55;;
81901;SDS011;71369;50.796;3.290;2023-07-20T08:27:09;5.82;;;3.10;;
81901;SDS011;71369;50.796;3.290;2023-07-20T08:29:37;4.43;;;2.92;;
81901;SDS011;71369;50.796;3.290;2023-07-20T08:32:04;5.90;;;3.08;;
81901;SDS011;71369;50.796;3.290;2023-07-20T08:34:31;5.65;;;2.80;;
81901;SDS011;71369;50.796;3.290;2023-07-20T08:36:57;4.32;;;3.13;;
81901;SDS011;71369;50.796;3.290;2023-07-20T08:39:24;3.65;;;3.05;;
81901;SDS011;71369;50.796;3.290;2023-07-20T08:41:50;5.15;;;3.10;;
81901;SDS011;71369;50.796;3.290;2023-07-20T08:44:17;4.63;;;3.63;;
81901;SDS011;71369;50.796;3.290;2023-07-20T08:46:42;4.28;;;2.90;;
81901;SDS011;71369;50.796;3.290;2023-07-20T08:49:09;6.80;;;3.30;;
81901;SDS011;71369;50.796;3.290;2023-07-20T08:51:36;4.97;;;3.05;;
81901;SDS011;71369;50.796;3.290;2023-07-20T08:54:04;5.32;;;3.22;;
81901;SDS011;71369;50.796;3.290;2023-07-20T08:56:31;5.82;;;3.58;;
81901;SDS011;71369;50.796;3.290;2023-07-20T08:58:59;4.25;;;3.08;;
81901;SDS011;71369;50.796;3.290;2023-07-20T09:01:26;4.18;;;2.95;;
81901;SDS011;71369;50.796;3.290;2023-07-20T09:03:53;3.85;;;2.88;;
81901;SDS011;71369;50.796;3.290;2023-07-20T09:06:19;5.30;;;2.58;;
81901;SDS011;71369;50.796;3.290;2023-07-20T09:08:47;2.97;;;2.58;;
81901;SDS011;71369;50.796;3.290;2023-07-20T09:11:12;4.95;;;2.55;;
81901;SDS011;71369;50.796;3.290;2023-07-20T09:13:41;4.25;;;2.05;;
81901;SDS011;71369;50.796;3.290;2023-07-20T09:16:06;5.22;;;2.60;;
81901;SDS011;71369;50.796;3.290;2023-07-20T09:18:32;4.80;;;2.70;;
81901;SDS011;71369;50.796;3.290;2023-07-20T09:21:02;4.63;;;2.63;;
81901;SDS011;71369;50.796;3.290;2023-07-20T09:26:01;5.28;;;3.13;;
81901;SDS011;71369;50.796;3.290;2023-07-20T09:28:49;4.97;;;2.80;;
81901;SDS011;71369;50.796;3.290;2023-07-20T09:31:20;5.72;;;3.35;;
81901;SDS011;71369;50.796;3.290;2023-07-20T09:33:47;5.85;;;3.42;;
81901;SDS011;71369;50.796;3.290;2023-07-20T09:36:13;5.55;;;3.50;;
81901;SDS011;71369;50.796;3.290;2023-07-20T09:38:42;6.25;;;4.20;;
81901;SDS011;71369;50.796;3.290;2023-07-20T09:41:08;6.25;;;3.42;;
81901;SDS011;71369;50.796;3.290;2023-07-20T09:43:40;12.48;;;4.00;;
81901;SDS011;71369;50.796;3.290;2023-07-20T09:46:07;5.15;;;3.38;;
81901;SDS011;71369;50.796;3.290;2023-07-20T09:48:32;5.32;;;3.40;;
81901;SDS011;71369;50.796;3.290;2023-07-20T09:50:58;4.97;;;3.47;;
81901;SDS011;71369;50.796;3.290;2023-07-20T09:53:25;4.00;;;3.33;;
81901;SDS011;71369;50.796;3.290;2023-07-20T09:55:52;5.35;;;2.70;;
81901;SDS011;71369;50.796;3.290;2023-07-20T09:58:18;6.10;;;3.70;;
81901;SDS011;71369;50.796;3.290;2023-07-20T10:00:45;7.28;;;3.85;;
81901;SDS011;71369;50.796;3.290;2023-07-20T10:03:19;6.50;;;3.53;;
81901;SDS011;71369;50.796;3.290;2023-07-20T10:05:56;6.25;;;3.10;;
81901;SDS011;71369;50.796;3.290;2023-07-20T10:08:28;3.83;;;2.88;;
81901;SDS011;71369;50.796;3.290;2023-07-20T10:10:57;6.07;;;3.55;;
81901;SDS011;71369;50.796;3.290;2023-07-20T10:13:26;4.65;;;3.33;;
81901;SDS011;71369;50.796;3.290;2023-07-20T10:15:58;7.07;;;3.22;;
81901;SDS011;71369;50.796;3.290;2023-07-20T10:21:20;4.72;;;3.05;;
81901;SDS011;71369;50.796;3.290;2023-07-20T10:23:49;6.00;;;3.53;;
81901;SDS011;71369;50.796;3.290;2023-07-20T10:26:15;5.88;;;2.88;;
81901;SDS011;71369;50.796;3.290;2023-07-20T10:28:40;4.78;;;2.60;;
81901;SDS011;71369;50.796;3.290;2023-07-20T10:31:07;5.32;;;2.80;;
81901;SDS011;71369;50.796;3.290;2023-07-20T10:33:34;5.78;;;2.72;;
81901;SDS011;71369;50.796;3.290;2023-07-20T10:36:03;3.65;;;2.50;;
81901;SDS011;71369;50.796;3.290;2023-07-20T10:41:31;5.78;;;2.95;;
81901;SDS011;71369;50.796;3.290;2023-07-20T10:44:09;5.60;;;2.55;;
81901;SDS011;71369;50.796;3.290;2023-07-20T10:49:05;6.47;;;2.70;;
81901;SDS011;71369;50.796;3.290;2023-07-20T10:51:45;6.30;;;2.63;;
81901;SDS011;71369;50.796;3.290;2023-07-20T10:56:42;4.78;;;3.40;;
81901;SDS011;71369;50.796;3.290;2023-07-20T10:59:18;5.20;;;3.60;;
81901;SDS011;71369;50.796;3.290;2023-07-20T11:01:45;7.05;;;4.25;;
81901;SDS011;71369;50.796;3.290;2023-07-20T11:04:15;5.85;;;4.10;;
81901;SDS011;71369;50.796;3.290;2023-07-20T11:06:45;7.22;;;4.28;;
81901;SDS011;71369;50.796;3.290;2023-07-20T11:09:12;6.43;;;4.30;;
81901;SDS011;71369;50.796;3.290;2023-07-20T11:14:09;5.18;;;3.70;;
81901;SDS011;71369;50.796;3.290;2023-07-20T11:16:45;7.25;;;3.45;;
81901;SDS011;71369;50.796;3.290;2023-07-20T11:19:15;8.07;;;4.43;;
81901;SDS011;71369;50.796;3.290;2023-07-20T11:21:45;10.27;;;4.35;;
81901;SDS011;71369;50.796;3.290;2023-07-20T11:24:12;7.32;;;4.30;;
81901;SDS011;71369;50.796;3.290;2023-07-20T11:29:20;8.10;;;4.93;;
81901;SDS011;71369;50.796;3.290;2023-07-20T11:31:48;8.45;;;5.32;;
81901;SDS011;71369;50.796;3.290;2023-07-20T11:34:16;7.72;;;4.57;;
81901;SDS011;71369;50.796;3.290;2023-07-20T11:36:47;10.63;;;5.13;;
81901;SDS011;71369;50.796;3.290;2023-07-20T11:39:15;7.65;;;5.53;;
81901;SDS011;71369;50.796;3.290;2023-07-20T11:41:49;8.85;;;5.70;;
81901;SDS011;71369;50.796;3.290;2023-07-20T11:44:16;9.00;;;5.15;;
81901;SDS011;71369;50.796;3.290;2023-07-20T11:46:43;7.50;;;4.68;;
81901;SDS011;71369;50.796;3.290;2023-07-20T11:49:12;7.63;;;4.07;;
81901;SDS011;71369;50.796;3.290;2023-07-20T11:51:38;13.73;;;5.03;;
81901;SDS011;71369;50.796;3.290;2023-07-20T11:54:08;6.25;;;3.40;;
81901;SDS011;71369;50.796;3.290;2023-07-20T11:56:34;8.00;;;4.80;;
81901;SDS011;71369;50.796;3.290;2023-07-20T11:59:03;6.93;;;3.80;;
81901;SDS011;71369;50.796;3.290;2023-07-20T12:01:29;6.07;;;3.92;;
81901;SDS011;71369;50.796;3.290;2023-07-20T12:04:00;8.43;;;3.60;;
81901;SDS011;71369;50.796;3.290;2023-07-20T12:06:29;4.97;;;3.78;;
81901;SDS011;71369;50.796;3.290;2023-07-20T12:08:58;6.15;;;3.75;;
81901;SDS011;71369;50.796;3.290;2023-07-20T12:11:31;5.00;;;3.10;;
81901;SDS011;71369;50.796;3.290;2023-07-20T12:14:00;5.40;;;2.90;;
81901;SDS011;71369;50.796;3.290;2023-07-20T12:16:27;5.75;;;3.72;;
81901;SDS011;71369;50.796;3.290;2023-07-20T12:19:00;6.53;;;3.15;;
81901;SDS011;71369;50.796;3.290;2023-07-20T12:21:27;6.93;;;4.10;;
81901;SDS011;71369;50.796;3.290;2023-07-20T12:23:55;6.68;;;3.88;;
81901;SDS011;71369;50.796;3.290;2023-07-20T12:26:24;6.80;;;4.15;;
81901;SDS011;71369;50.796;3.290;2023-07-20T12:28:50;6.43;;;4.20;;
81901;SDS011;71369;50.796;3.290;2023-07-20T12:31:17;7.50;;;4.40;;
81901;SDS011;71369;50.796;3.290;2023-07-20T12:33:42;8.57;;;4.47;;
81901;SDS011;71369;50.796;3.290;2023-07-20T12:36:08;11.00;;;5.10;;
81901;SDS011;71369;50.796;3.290;2023-07-20T12:38:35;7.20;;;4.70;;
81901;SDS011;71369;50.796;3.290;2023-07-20T12:41:01;9.70;;;5.32;;
81901;SDS011;71369;50.796;3.290;2023-07-20T12:43:28;9.20;;;5.13;;
81901;SDS011;71369;50.796;3.290;2023-07-20T12:45:54;7.25;;;4.95;;
81901;SDS011;71369;50.796;3.290;2023-07-20T12:48:20;9.60;;;5.80;;
81901;SDS011;71369;50.796;3.290;2023-07-20T12:50:46;8.57;;;5.25;;
81901;SDS011;71369;50.796;3.290;2023-07-20T12:53:12;11.45;;;5.47;;
81901;SDS011;71369;50.796;3.290;2023-07-20T12:55:38;7.95;;;5.55;;
81901;SDS011;71369;50.796;3.290;2023-07-20T12:58:07;11.65;;;6.43;;
81901;SDS011;71369;50.796;3.290;2023-07-20T13:00:33;8.20;;;6.05;;
81901;SDS011;71369;50.796;3.290;2023-07-20T13:02:59;11.38;;;6.18;;
81901;SDS011;71369;50.796;3.290;2023-07-20T13:05:24;8.95;;;6.05;;
81901;SDS011;71369;50.796;3.290;2023-07-20T13:07:50;9.65;;;6.68;;
81901;SDS011;71369;50.796;3.290;2023-07-20T13:10:16;10.13;;;6.57;;
81901;SDS011;71369;50.796;3.290;2023-07-20T13:12:42;8.95;;;6.20;;
81901;SDS011;71369;50.796;3.290;2023-07-20T13:15:11;8.50;;;6.38;;
81901;SDS011;71369;50.796;3.290;2023-07-20T13:17:37;11.45;;;5.88;;
81901;SDS011;71369;50.796;3.290;2023-07-20T13:20:04;9.13;;;6.45;;
81901;SDS011;71369;50.796;3.290;2023-07-20T13:22:35;10.23;;;7.07;;
81901;SDS011;71369;50.796;3.290;2023-07-20T13:25:04;12.73;;;7.97;;
81901;SDS011;71369;50.796;3.290;2023-07-20T13:27:31;14.30;;;9.70;;
81901;SDS011;71369;50.796;3.290;2023-07-20T13:29:57;13.73;;;9.63;;
81901;SDS011;71369;50.796;3.290;2023-07-20T13:32:23;15.05;;;10.25;;
81901;SDS011;71369;50.796;3.290;2023-07-20T13:34:49;12.80;;;10.32;;
81901;SDS011;71369;50.796;3.290;2023-07-20T13:37:15;14.45;;;11.23;;
81901;SDS011;71369;50.796;3.290;2023-07-20T13:39:43;12.95;;;10.23;;
81901;SDS011;71369;50.796;3.290;2023-07-20T13:42:09;11.45;;;10.18;;
81901;SDS011;71369;50.796;3.290;2023-07-20T13:44:37;14.27;;;10.18;;
81901;SDS011;71369;50.796;3.290;2023-07-20T13:47:03;14.98;;;11.15;;
81901;SDS011;71369;50.796;3.290;2023-07-20T13:49:30;12.55;;;10.27;;
81901;SDS011;71369;50.796;3.290;2023-07-20T13:51:56;13.85;;;11.45;;
81901;SDS011;71369;50.796;3.290;2023-07-20T13:54:22;13.43;;;10.55;;
81901;SDS011;71369;50.796;3.290;2023-07-20T13:56:48;11.93;;;10.63;;
81901;SDS011;71369;50.796;3.290;2023-07-20T13:59:14;15.27;;;12.18;;
81901;SDS011;71369;50.796;3.290;2023-07-20T14:01:40;13.90;;;10.85;;
81901;SDS011;71369;50.796;3.290;2023-07-20T14:04:05;13.75;;;11.63;;
81901;SDS011;71369;50.796;3.290;2023-07-20T14:06:32;14.82;;;11.45;;
81901;SDS011;71369;50.796;3.290;2023-07-20T14:08:59;16.13;;;12.88;;
81901;SDS011;71369;50.796;3.290;2023-07-20T14:11:25;15.52;;;12.77;;
81901;SDS011;71369;50.796;3.290;2023-07-20T14:13:51;13.85;;;12.45;;
81901;SDS011;71369;50.796;3.290;2023-07-20T14:16:21;17.08;;;12.93;;
81901;SDS011;71369;50.796;3.290;2023-07-20T14:18:47;17.23;;;12.88;;
81901;SDS011;71369;50.796;3.290;2023-07-20T14:21:14;16.30;;;14.52;;
81901;SDS011;71369;50.796;3.290;2023-07-20T14:23:40;17.05;;;14.70;;
81901;SDS011;71369;50.796;3.290;2023-07-20T14:26:06;18.10;;;15.02;;
81901;SDS011;71369;50.796;3.290;2023-07-20T14:28:34;19.45;;;14.95;;
81901;SDS011;71369;50.796;3.290;2023-07-20T14:31:00;20.38;;;15.88;;
81901;SDS011;71369;50.796;3.290;2023-07-20T14:33:25;20.80;;;15.40;;
81901;SDS011;71369;50.796;3.290;2023-07-20T14:35:51;19.40;;;15.45;;
81901;SDS011;71369;50.796;3.290;2023-07-20T14:38:17;19.45;;;13.73;;
81901;SDS011;71369;50.796;3.290;2023-07-20T14:40:42;16.10;;;11.50;;
81901;SDS011;71369;50.796;3.290;2023-07-20T14:43:08;15.27;;;11.43;;
81901;SDS011;71369;50.796;3.290;2023-07-20T14:45:34;14.95;;;11.50;;
81901;SDS011;71369;50.796;3.290;2023-07-20T14:48:02;11.98;;;10.52;;
81901;SDS011;71369;50.796;3.290;2023-07-20T14:50:28;13.88;;;10.60;;
81901;SDS011;71369;50.796;3.290;2023-07-20T14:52:53;10.40;;;9.30;;
81901;SDS011;71369;50.796;3.290;2023-07-20T14:55:19;10.93;;;9.02;;
81901;SDS011;71369;50.796;3.290;2023-07-20T14:57:45;13.18;;;9.27;;
81901;SDS011;71369;50.796;3.290;2023-07-20T15:00:13;14.60;;;9.65;;
81901;SDS011;71369;50.796;3.290;2023-07-20T15:02:40;10.93;;;8.98;;
81901;SDS011;71369;50.796;3.290;2023-07-20T15:05:08;11.13;;;9.43;;
81901;SDS011;71369;50.796;3.290;2023-07-20T15:07:35;10.13;;;7.78;;
81901;SDS011;71369;50.796;3.290;2023-07-20T15:10:02;10.23;;;7.97;;